Time;durP1;ratioP1;P1;durP2;ratioP2;P2;SDS_P1;SDS_P2;PMS_P1;PMS_P2;Temp;Humidity;BMP_temperature;BMP_pressure;BME280_temperature;BME280_humidity;BME280_pressure;Samples;Min_cycle;Max_cycle;Signal;HPM_P1;HPM_P2
2023/08/21 00:01:01;;;;;;;5.47;1.50;;;18.20;99.90;;;;;;6133215;23;20009;-87
2023/08/21 00:03:27;;;;;;;5.13;1.40;;;18.00;99.90;;;;;;6158039;23;20048;-86
2023/08/21 00:05:52;;;;;;;3.83;1.33;;;17.90;99.90;;;;;;6159491;23;20009;-87
2023/08/21 00:08:18;;;;;;;3.40;1.25;;;17.90;99.90;;;;;;6159014;23;20062;-87
2023/08/21 00:10:43;;;;;;;6.90;1.60;;;17.80;99.90;;;;;;6133275;23;20009;-87
2023/08/21 00:13:09;;;;;;;4.75;1.73;;;17.80;99.90;;;;;;6132969;23;20658;-87
2023/08/21 00:15:37;;;;;;;5.88;1.80;;;17.70;99.90;;;;;;6157421;23;20016;-87
2023/08/21 00:18:03;;;;;;;4.57;2.03;;;17.70;99.90;;;;;;6131896;23;20096;-87
2023/08/21 00:20:28;;;;;;;4.28;1.70;;;17.70;99.90;;;;;;6132674;23;20380;-87
2023/08/21 00:22:54;;;;;;;2.83;1.40;;;17.70;99.90;;;;;;6157216;23;20012;-87
2023/08/21 00:25:21;;;;;;;2.72;1.27;;;17.70;99.90;;;;;;6157082;23;20013;-87
2023/08/21 00:27:47;;;;;;;3.83;1.23;;;17.60;99.90;;;;;;6156816;23;20112;-87
2023/08/21 00:30:14;;;;;;;3.97;1.60;;;17.60;99.90;;;;;;6131846;23;20095;-87
2023/08/21 00:32:40;;;;;;;5.00;1.67;;;17.50;99.90;;;;;;6156370;23;20009;-87
2023/08/21 00:35:06;;;;;;;5.45;1.90;;;17.40;99.90;;;;;;6157065;23;20096;-87
2023/08/21 00:37:32;;;;;;;8.25;2.75;;;17.40;99.90;;;;;;6132207;23;20059;-88
2023/08/21 00:39:57;;;;;;;6.43;2.80;;;17.40;99.90;;;;;;6156508;23;20434;-87
2023/08/21 00:42:23;;;;;;;8.27;3.03;;;17.40;99.90;;;;;;6132940;23;20013;-87
2023/08/21 00:44:49;;;;;;;9.45;3.03;;;17.40;99.90;;;;;;6157403;23;20347;-87
2023/08/21 00:47:15;;;;;;;5.72;2.00;;;17.40;99.90;;;;;;6132473;23;20009;-87
2023/08/21 00:49:41;;;;;;;4.20;1.80;;;17.40;99.90;;;;;;6131719;23;20013;-87
2023/08/21 00:52:14;;;;;;;5.97;2.20;;;17.30;99.90;;;;;;6156979;23;20005;-87
2023/08/21 00:54:40;;;;;;;10.18;2.90;;;17.30;99.90;;;;;;6156668;23;20521;-87
2023/08/21 00:57:06;;;;;;;6.93;2.17;;;17.30;99.90;;;;;;6157394;23;20052;-87
2023/08/21 00:59:31;;;;;;;7.65;2.20;;;17.30;99.90;;;;;;6132116;23;20013;-87
2023/08/21 01:01:57;;;;;;;6.60;1.85;;;17.30;99.90;;;;;;6157198;23;20013;-87
2023/08/21 01:04:23;;;;;;;5.57;2.20;;;17.30;99.90;;;;;;6156889;23;20012;-87
2023/08/21 01:06:49;;;;;;;5.90;1.60;;;17.20;99.90;;;;;;6132661;23;20020;-87
2023/08/21 01:09:33;;;;;;;5.90;2.00;;;17.20;99.90;;;;;;6132206;23;20454;-87
2023/08/21 01:12:12;;;;;;;7.88;3.30;;;17.10;99.90;;;;;;6112988;23;1065167;-87
2023/08/21 01:14:58;;;;;;;7.45;2.50;;;17.20;99.90;;;;;;6133634;23;20017;-87
2023/08/21 01:17:24;;;;;;;8.50;3.10;;;17.10;99.90;;;;;;6158166;23;20056;-87
2023/08/21 01:19:51;;;;;;;6.93;2.67;;;17.10;99.90;;;;;;6133007;23;20036;-87
2023/08/21 01:22:17;;;;;;;10.25;3.20;;;17.00;99.90;;;;;;6159097;23;20247;-87
2023/08/21 01:24:43;;;;;;;8.85;3.13;;;17.00;99.90;;;;;;6158293;23;20643;-87
2023/08/21 01:27:10;;;;;;;8.38;3.65;;;17.00;99.90;;;;;;6158773;23;20005;-87
2023/08/21 01:29:36;;;;;;;5.68;2.10;;;17.10;99.90;;;;;;6157825;23;20418;-87
2023/08/21 01:32:23;;;;;;;6.18;1.58;;;17.00;99.90;;;;;;6133507;23;20390;-87
2023/08/21 01:34:50;;;;;;;5.72;1.85;;;17.00;99.90;;;;;;6157089;23;20020;-87
2023/08/21 01:37:17;;;;;;;2.45;1.00;;;16.90;99.90;;;;;;6158221;23;20021;-87
2023/08/21 01:39:43;;;;;;;5.50;1.83;;;16.80;99.90;;;;;;6157383;23;20059;-87
2023/08/21 01:42:08;;;;;;;4.93;1.40;;;16.80;99.90;;;;;;6133983;23;20452;-87
2023/08/21 01:44:34;;;;;;;6.07;1.98;;;16.80;99.90;;;;;;6133348;23;20063;-87
2023/08/21 01:46:59;;;;;;;5.97;1.70;;;16.80;99.90;;;;;;6158271;23;20044;-87
2023/08/21 01:49:25;;;;;;;3.00;1.20;;;16.80;99.90;;;;;;6157990;23;20039;-87
2023/08/21 01:51:50;;;;;;;1.52;0.98;;;16.80;99.90;;;;;;6133691;23;20021;-87
2023/08/21 01:54:16;;;;;;;3.30;0.80;;;16.70;99.90;;;;;;6158303;23;20009;-87
2023/08/21 01:56:41;;;;;;;2.10;1.10;;;16.70;99.90;;;;;;6158292;23;20020;-87
2023/08/21 01:59:07;;;;;;;1.45;0.80;;;16.70;99.90;;;;;;6133332;23;20009;-87
2023/08/21 02:01:33;;;;;;;3.47;1.20;;;16.60;99.90;;;;;;6158412;23;20020;-87
2023/08/21 02:03:59;;;;;;;2.40;1.13;;;16.50;99.90;;;;;;6158344;23;20009;-86
2023/08/21 02:06:25;;;;;;;2.38;1.20;;;16.50;99.90;;;;;;6157239;23;20532;-86
2023/08/21 02:08:50;;;;;;;2.58;1.20;;;16.60;99.90;;;;;;6157133;23;20013;-86
2023/08/21 02:11:16;;;;;;;3.35;1.00;;;16.50;99.90;;;;;;6132798;23;20042;-86
2023/08/21 02:13:41;;;;;;;3.15;1.20;;;16.40;99.90;;;;;;6133394;23;20044;-86
2023/08/21 02:16:07;;;;;;;3.65;1.40;;;16.40;99.90;;;;;;6133281;23;20020;-86
2023/08/21 02:18:32;;;;;;;4.75;1.70;;;16.40;99.90;;;;;;6158417;23;20067;-86
2023/08/21 02:21:00;;;;;;;6.55;2.20;;;16.40;99.90;;;;;;6132768;23;20414;-87
2023/08/21 02:23:25;;;;;;;3.08;1.23;;;16.40;99.90;;;;;;6158317;23;20013;-87
2023/08/21 02:25:51;;;;;;;3.35;0.85;;;16.40;99.90;;;;;;6157654;23;20016;-86
2023/08/21 02:28:16;;;;;;;2.75;1.25;;;16.20;99.90;;;;;;6157688;23;20092;-86
2023/08/21 02:30:42;;;;;;;4.45;1.50;;;16.20;99.90;;;;;;6133201;23;20096;-86
2023/08/21 02:33:08;;;;;;;2.60;1.02;;;16.20;99.90;;;;;;6158123;23;20641;-86
2023/08/21 02:35:33;;;;;;;2.55;1.00;;;16.10;99.90;;;;;;6156775;23;20024;-86
2023/08/21 02:37:59;;;;;;;4.38;1.42;;;16.10;99.90;;;;;;6156433;23;20108;-87
2023/08/21 02:40:24;;;;;;;2.13;0.85;;;16.10;99.90;;;;;;6132940;23;20017;-86
2023/08/21 02:42:50;;;;;;;1.30;0.70;;;16.10;99.90;;;;;;6133461;23;20017;-86
2023/08/21 02:45:16;;;;;;;0.77;0.60;;;16.00;99.90;;;;;;6133144;23;20453;-86
2023/08/21 02:47:42;;;;;;;2.60;0.80;;;16.00;99.90;;;;;;6157905;23;20402;-87
2023/08/21 02:50:09;;;;;;;1.88;0.80;;;16.00;99.90;;;;;;6157051;23;20359;-86
2023/08/21 02:52:35;;;;;;;2.63;0.90;;;16.00;99.90;;;;;;6157319;23;20088;-87
2023/08/21 02:55:02;;;;;;;2.75;1.10;;;16.00;99.90;;;;;;6156746;23;20048;-87
2023/08/21 02:57:28;;;;;;;1.15;0.60;;;16.00;99.90;;;;;;6132741;23;20013;-87
2023/08/21 02:59:54;;;;;;;1.58;0.80;;;15.90;99.90;;;;;;6132639;23;20012;-87
2023/08/21 03:02:20;;;;;;;2.08;0.90;;;15.90;99.90;;;;;;6157906;23;20457;-87
2023/08/21 03:04:46;;;;;;;1.77;0.80;;;15.90;99.90;;;;;;6132897;23;20463;-87
2023/08/21 03:07:12;;;;;;;2.53;1.00;;;15.80;99.90;;;;;;6157315;23;20051;-87
2023/08/21 03:09:40;;;;;;;3.15;1.05;;;15.70;99.90;;;;;;6156379;23;20009;-87
2023/08/21 03:12:06;;;;;;;2.05;1.00;;;15.60;99.90;;;;;;6132700;23;20370;-85
2023/08/21 03:14:32;;;;;;;2.67;1.10;;;15.60;99.90;;;;;;6132898;23;20067;-85
2023/08/21 03:16:58;;;;;;;2.75;1.00;;;15.60;99.90;;;;;;6132932;23;20009;-85
2023/08/21 03:19:23;;;;;;;1.17;0.65;;;15.60;99.90;;;;;;6132215;23;20013;-85
2023/08/21 03:21:49;;;;;;;1.45;0.55;;;15.50;99.90;;;;;;6157385;23;20009;-85
2023/08/21 03:24:15;;;;;;;2.15;0.93;;;15.40;99.90;;;;;;6133590;23;20013;-85
2023/08/21 03:26:40;;;;;;;3.25;1.23;;;15.50;99.90;;;;;;6157190;23;20016;-85
2023/08/21 03:29:06;;;;;;;2.75;0.98;;;15.60;99.90;;;;;;6132970;23;20480;-86
2023/08/21 03:31:31;;;;;;;3.90;1.73;;;15.50;99.90;;;;;;6157212;23;20350;-87
2023/08/21 03:33:57;;;;;;;4.68;1.27;;;15.50;99.90;;;;;;6157150;23;20054;-86
2023/08/21 03:36:31;;;;;;;3.28;1.20;;;15.40;99.90;;;;;;6156975;23;20020;-87
2023/08/21 03:39:00;;;;;;;3.72;1.40;;;15.40;99.90;;;;;;6132246;23;20048;-86
2023/08/21 03:41:27;;;;;;;3.05;1.20;;;15.40;99.90;;;;;;6157167;23;20136;-86
2023/08/21 03:43:53;;;;;;;1.95;1.02;;;15.40;99.90;;;;;;6133041;23;20470;-86
2023/08/21 03:46:18;;;;;;;3.88;1.00;;;15.30;99.90;;;;;;6132498;23;20020;-86
2023/08/21 03:48:44;;;;;;;3.00;1.08;;;15.30;99.90;;;;;;6156935;23;20016;-86
2023/08/21 03:51:09;;;;;;;0.77;0.50;;;15.30;99.90;;;;;;6156966;23;20620;-86
2023/08/21 03:53:35;;;;;;;2.38;0.98;;;15.30;99.90;;;;;;6132678;23;20080;-86
2023/08/21 03:56:01;;;;;;;3.60;1.10;;;15.20;99.90;;;;;;6156922;23;20099;-85
2023/08/21 03:58:26;;;;;;;3.97;1.33;;;15.20;99.90;;;;;;6157142;23;20020;-86
2023/08/21 04:00:55;;;;;;;4.43;1.77;;;15.20;99.90;;;;;;6132244;23;20013;-86
2023/08/21 04:03:21;;;;;;;4.22;1.75;;;15.30;99.90;;;;;;6157447;23;20040;-86
2023/08/21 04:05:47;;;;;;;1.98;0.90;;;15.30;99.90;;;;;;6156924;23;20336;-86
2023/08/21 04:08:13;;;;;;;3.60;1.40;;;15.20;99.90;;;;;;6132043;23;20013;-86
2023/08/21 04:10:39;;;;;;;4.80;1.27;;;15.20;99.90;;;;;;6156005;23;20017;-86
2023/08/21 04:13:05;;;;;;;2.75;1.20;;;15.20;99.90;;;;;;6132584;23;20012;-86
2023/08/21 04:15:31;;;;;;;3.67;0.95;;;15.20;99.90;;;;;;6157367;23;20068;-86
2023/08/21 04:17:57;;;;;;;2.15;0.85;;;15.20;99.90;;;;;;6156891;23;20036;-86
2023/08/21 04:20:22;;;;;;;3.30;1.10;;;15.00;99.90;;;;;;6157132;23;20351;-86
2023/08/21 04:22:49;;;;;;;3.75;1.33;;;15.00;99.90;;;;;;6157272;23;20528;-86
2023/08/21 04:25:14;;;;;;;5.90;1.10;;;15.00;99.90;;;;;;6132407;23;20013;-86
2023/08/21 04:27:40;;;;;;;0.80;0.50;;;15.00;99.90;;;;;;6157277;23;20020;-86
2023/08/21 04:30:07;;;;;;;2.47;1.13;;;14.90;99.90;;;;;;6157150;23;20664;-86
2023/08/21 04:32:32;;;;;;;4.88;1.50;;;14.90;99.90;;;;;;6132513;23;20009;-86
2023/08/21 04:34:58;;;;;;;3.65;1.30;;;15.00;99.90;;;;;;6132921;23;20036;-86
2023/08/21 04:37:23;;;;;;;1.85;0.95;;;15.00;99.90;;;;;;6155603;23;20016;-87
2023/08/21 04:39:53;;;;;;;6.90;1.40;;;14.90;99.90;;;;;;6156753;23;20020;-86
2023/08/21 04:42:19;;;;;;;1.15;0.52;;;15.00;99.90;;;;;;6156381;23;20020;-86
2023/08/21 04:44:45;;;;;;;1.52;0.70;;;14.90;99.90;;;;;;6157484;23;20017;-86
2023/08/21 04:47:26;;;;;;;3.17;0.90;;;14.80;99.90;;;;;;6157049;23;20472;-86
2023/08/21 04:49:52;;;;;;;3.67;0.90;;;14.90;99.90;;;;;;6157824;23;20009;-86
2023/08/21 04:52:19;;;;;;;2.45;1.40;;;14.90;99.90;;;;;;6133788;23;20016;-86
2023/08/21 04:54:44;;;;;;;3.33;1.10;;;14.80;99.90;;;;;;6158821;23;20483;-85
2023/08/21 04:57:10;;;;;;;2.15;0.68;;;14.70;99.90;;;;;;6158570;23;20024;-86
2023/08/21 04:59:36;;;;;;;2.83;0.85;;;14.60;99.90;;;;;;6158801;23;20013;-85
2023/08/21 05:02:02;;;;;;;0.50;0.43;;;14.70;99.90;;;;;;6158775;23;20096;-86
2023/08/21 05:04:28;;;;;;;2.50;1.00;;;14.70;99.90;;;;;;6134221;23;20047;-86
2023/08/21 05:06:54;;;;;;;2.45;1.00;;;14.80;99.90;;;;;;6133714;23;20037;-86
2023/08/21 05:09:19;;;;;;;2.85;0.80;;;14.80;99.90;;;;;;6134025;23;20012;-86
2023/08/21 05:11:45;;;;;;;1.85;1.00;;;14.80;99.90;;;;;;6157906;23;20463;-86
2023/08/21 05:14:10;;;;;;;3.83;1.00;;;14.80;99.90;;;;;;6158755;23;20060;-86
2023/08/21 05:16:36;;;;;;;1.35;0.90;;;14.80;99.90;;;;;;6133765;23;20020;-86
2023/08/21 05:19:02;;;;;;;3.38;1.30;;;14.90;99.90;;;;;;6133939;23;20043;-86
2023/08/21 05:21:27;;;;;;;3.63;1.20;;;14.90;99.90;;;;;;6133384;23;20140;-86
2023/08/21 05:23:53;;;;;;;3.72;1.10;;;15.00;99.90;;;;;;6133814;23;20358;-86
2023/08/21 05:26:19;;;;;;;3.33;0.90;;;15.10;99.90;;;;;;6133579;23;20019;-86
2023/08/21 05:28:45;;;;;;;1.00;0.50;;;15.00;99.90;;;;;;6133982;23;20475;-86
2023/08/21 05:31:11;;;;;;;1.05;0.60;;;15.00;99.90;;;;;;6158072;23;20009;-86
2023/08/21 05:33:36;;;;;;;3.45;0.90;;;14.90;99.90;;;;;;6158241;23;20455;-86
2023/08/21 05:36:02;;;;;;;1.38;0.70;;;15.00;99.90;;;;;;6158135;23;20024;-86
2023/08/21 05:38:28;;;;;;;3.85;0.90;;;15.00;99.90;;;;;;6132629;23;20016;-86
2023/08/21 05:40:53;;;;;;;2.83;0.88;;;15.10;99.90;;;;;;6158064;23;20020;-85
2023/08/21 05:43:19;;;;;;;3.30;1.10;;;15.10;99.90;;;;;;6158349;23;20023;-85
2023/08/21 05:45:45;;;;;;;2.70;1.05;;;15.10;99.90;;;;;;6133890;23;20093;-86
2023/08/21 05:48:11;;;;;;;2.50;0.93;;;15.20;99.90;;;;;;6133363;23;20009;-85
2023/08/21 05:50:36;;;;;;;1.70;0.70;;;15.30;99.90;;;;;;6158518;23;20402;-86
2023/08/21 05:53:06;;;;;;;1.98;0.68;;;15.30;99.90;;;;;;6133861;23;20020;-86
2023/08/21 05:55:32;;;;;;;3.33;1.25;;;15.30;99.90;;;;;;6158207;23;20016;-86
2023/08/21 05:57:58;;;;;;;1.05;0.88;;;15.30;99.90;;;;;;6157868;23;20486;-86
2023/08/21 06:00:23;;;;;;;1.60;1.00;;;15.30;99.90;;;;;;6158163;23;20082;-86
2023/08/21 06:02:49;;;;;;;2.53;0.82;;;15.40;99.90;;;;;;6157660;23;20354;-86
2023/08/21 06:05:15;;;;;;;0.95;0.73;;;15.50;99.90;;;;;;6158113;23;20067;-86
2023/08/21 06:07:41;;;;;;;2.10;1.05;;;15.40;99.90;;;;;;6157950;23;20009;-86
2023/08/21 06:10:08;;;;;;;4.72;1.60;;;15.50;99.90;;;;;;6133628;23;20443;-86
2023/08/21 06:12:34;;;;;;;2.90;1.30;;;15.60;99.90;;;;;;6133465;23;20009;-86
2023/08/21 06:14:59;;;;;;;4.65;1.45;;;15.60;99.90;;;;;;6158068;23;20013;-86
2023/08/21 06:17:27;;;;;;;7.85;2.20;;;15.60;99.90;;;;;;6157199;23;20017;-85
2023/08/21 06:19:53;;;;;;;5.13;1.38;;;15.80;99.90;;;;;;6157802;23;20478;-86
2023/08/21 06:22:18;;;;;;;7.78;3.03;;;15.80;99.90;;;;;;6132275;23;20020;-86
2023/08/21 06:24:44;;;;;;;7.72;2.60;;;16.00;99.90;;;;;;6131515;23;20009;-86
2023/08/21 06:27:10;;;;;;;6.95;2.90;;;16.10;99.90;;;;;;6156287;23;20071;-86
2023/08/21 06:29:37;;;;;;;9.07;3.90;;;16.20;99.90;;;;;;6157214;23;20016;-86
2023/08/21 06:32:03;;;;;;;9.65;3.80;;;16.40;99.90;;;;;;6132428;23;20013;-86
2023/08/21 06:34:29;;;;;;;10.15;4.30;;;16.50;99.90;;;;;;6132848;23;20055;-87
2023/08/21 06:36:54;;;;;;;12.27;4.72;;;16.60;99.90;;;;;;6133230;23;20048;-87
2023/08/21 06:39:20;;;;;;;12.68;4.93;;;16.70;99.90;;;;;;6158120;23;20009;-87
2023/08/21 06:41:45;;;;;;;11.75;5.38;;;16.90;99.90;;;;;;6131859;23;20099;-87
2023/08/21 06:44:11;;;;;;;13.70;5.32;;;16.90;99.90;;;;;;6132861;23;20013;-87
2023/08/21 06:46:37;;;;;;;12.13;5.47;;;17.00;99.90;;;;;;6132794;23;20013;-87
2023/08/21 06:49:03;;;;;;;11.00;5.18;;;17.10;99.90;;;;;;6133351;23;20051;-87
2023/08/21 06:51:29;;;;;;;11.82;5.18;;;17.20;99.90;;;;;;6157392;23;20005;-87
2023/08/21 06:53:55;;;;;;;8.77;3.30;;;17.30;99.90;;;;;;6157841;23;20374;-87
2023/08/21 06:56:20;;;;;;;12.15;4.90;;;17.40;99.90;;;;;;6157383;23;20040;-87
2023/08/21 06:58:46;;;;;;;11.13;5.60;;;17.50;99.90;;;;;;6157970;23;20013;-87
2023/08/21 07:01:11;;;;;;;12.93;4.60;;;17.60;99.90;;;;;;6157717;23;20056;-88
2023/08/21 07:03:37;;;;;;;16.63;6.93;;;17.70;99.90;;;;;;6157239;23;20020;-87
2023/08/21 07:06:03;;;;;;;13.43;7.00;;;17.80;99.90;;;;;;6132107;23;20017;-87
2023/08/21 07:08:29;;;;;;;12.30;6.18;;;17.90;99.90;;;;;;6132757;23;20347;-88
2023/08/21 07:10:54;;;;;;;10.95;6.10;;;18.00;99.90;;;;;;6158092;23;20016;-87
2023/08/21 07:13:20;;;;;;;12.77;5.25;;;18.10;99.90;;;;;;6131699;23;20013;-87
2023/08/21 07:15:46;;;;;;;11.90;6.00;;;18.20;99.90;;;;;;6156161;23;20013;-87
2023/08/21 07:18:13;;;;;;;11.70;5.70;;;18.20;99.90;;;;;;6156036;23;20017;-87
2023/08/21 07:20:38;;;;;;;10.40;4.35;;;18.40;99.90;;;;;;6133495;23;20013;-88
2023/08/21 07:23:04;;;;;;;13.20;6.32;;;18.40;99.90;;;;;;6155830;23;20021;-87
2023/08/21 07:25:30;;;;;;;12.40;5.43;;;18.50;99.90;;;;;;6158063;23;20023;-87
2023/08/21 07:27:56;;;;;;;11.95;5.28;;;18.60;99.90;;;;;;6170682;23;20025;-87
2023/08/21 07:30:22;;;;;;;15.02;5.97;;;18.70;99.90;;;;;;6148450;23;20041;-88
2023/08/21 07:32:48;;;;;;;11.93;5.72;;;18.80;99.90;;;;;;6134398;23;20009;-88
2023/08/21 07:35:14;;;;;;;12.05;5.30;;;18.80;99.90;;;;;;6159146;23;20021;-88
2023/08/21 07:37:43;;;;;;;12.65;5.43;;;18.90;99.90;;;;;;6134320;23;20072;-87
2023/08/21 07:40:09;;;;;;;11.32;4.97;;;19.00;99.90;;;;;;6134986;23;20581;-88
2023/08/21 07:42:35;;;;;;;12.15;4.88;;;19.10;99.90;;;;;;6158998;23;20023;-88
2023/08/21 07:45:04;;;;;;;11.93;4.28;;;19.10;99.90;;;;;;6133861;23;20459;-88
2023/08/21 07:47:32;;;;;;;12.20;4.25;;;19.30;99.90;;;;;;6157967;23;20013;-88
2023/08/21 07:49:58;;;;;;;9.90;3.45;;;19.40;99.90;;;;;;6133791;23;20005;-88
2023/08/21 07:52:24;;;;;;;10.05;2.88;;;19.40;99.90;;;;;;6157036;23;20140;-88
2023/08/21 07:54:56;;;;;;;10.38;3.30;;;19.50;99.90;;;;;;6156577;23;20013;-88
2023/08/21 07:57:22;;;;;;;12.18;4.47;;;19.60;99.90;;;;;;6131728;23;20013;-88
2023/08/21 07:59:47;;;;;;;10.45;4.03;;;19.70;99.90;;;;;;6133090;23;20438;-88
2023/08/21 08:02:16;;;;;;;11.18;3.15;;;19.80;99.90;;;;;;6157363;23;20017;-88
2023/08/21 08:04:43;;;;;;;8.98;2.70;;;19.90;99.90;;;;;;6133344;23;20100;-88
2023/08/21 08:07:13;;;;;;;9.80;2.88;;;20.00;99.90;;;;;;6133169;23;20020;-88
2023/08/21 08:09:41;;;;;;;9.43;2.88;;;20.10;99.90;;;;;;6157635;23;20013;-88
2023/08/21 08:12:10;;;;;;;8.20;2.47;;;20.20;99.90;;;;;;6132543;23;20454;-88
2023/08/21 08:14:40;;;;;;;9.20;2.80;;;20.30;99.90;;;;;;6183795;23;20015;-88
2023/08/21 08:17:09;;;;;;;7.10;2.30;;;20.30;99.90;;;;;;6157624;23;20013;-88
2023/08/21 08:19:35;;;;;;;9.25;2.30;;;20.40;99.90;;;;;;6132286;23;20013;-88
2023/08/21 08:22:00;;;;;;;11.20;2.25;;;20.50;99.90;;;;;;6157525;23;20017;-88
2023/08/21 08:24:26;;;;;;;6.60;2.10;;;20.50;99.90;;;;;;6157476;23;20013;-88
2023/08/21 08:26:53;;;;;;;11.00;2.72;;;20.60;99.90;;;;;;6135100;23;20013;-88
2023/08/21 08:29:19;;;;;;;9.15;2.40;;;20.60;99.90;;;;;;6157777;23;20016;-89
2023/08/21 08:31:47;;;;;;;9.18;2.17;;;20.80;99.90;;;;;;6134746;23;20008;-88
2023/08/21 08:34:13;;;;;;;9.70;2.95;;;20.80;99.90;;;;;;6134319;23;20367;-88
2023/08/21 08:36:41;;;;;;;9.05;2.60;;;20.90;99.90;;;;;;6159418;23;20017;-87
2023/08/21 08:39:10;;;;;;;8.45;2.40;;;21.00;99.90;;;;;;6159315;23;20009;-88
2023/08/21 08:42:06;;;;;;;7.97;2.10;;;21.10;99.90;;;;;;6134928;23;20024;-88
2023/08/21 08:44:38;;;;;;;6.18;1.73;;;21.20;99.90;;;;;;6152212;23;20024;-88
2023/08/21 08:47:11;;;;;;;7.55;2.10;;;21.20;99.90;;;;;;6135395;23;20016;-88
2023/08/21 08:49:37;;;;;;;7.65;2.13;;;21.30;99.90;;;;;;6159304;23;20494;-88
2023/08/21 08:52:17;;;;;;;8.90;2.28;;;21.40;99.90;;;;;;6159562;23;20411;-88
2023/08/21 08:54:43;;;;;;;9.40;2.28;;;21.40;99.90;;;;;;6133560;23;20094;-88
2023/08/21 08:57:11;;;;;;;9.80;2.58;;;21.50;99.90;;;;;;6157661;23;20040;-87
2023/08/21 08:59:37;;;;;;;8.18;2.20;;;21.50;99.90;;;;;;6158437;23;20024;-88
2023/08/21 09:02:15;;;;;;;7.35;1.80;;;21.60;99.90;;;;;;6158861;23;20009;-87
2023/08/21 09:04:51;;;;;;;8.30;2.10;;;21.70;99.90;;;;;;6159008;23;20009;-88
2023/08/21 09:07:19;;;;;;;9.45;2.22;;;21.70;99.90;;;;;;6159041;23;20013;-88
2023/08/21 09:09:52;;;;;;;8.95;1.92;;;21.80;99.90;;;;;;6158729;23;20370;-88
2023/08/21 09:12:20;;;;;;;9.70;2.33;;;21.80;99.90;;;;;;6158745;23;20005;-88
2023/08/21 09:14:49;;;;;;;6.88;1.75;;;21.90;99.90;;;;;;6134333;23;20019;-88
2023/08/21 09:17:16;;;;;;;6.30;1.80;;;22.00;99.90;;;;;;6132712;23;20354;-88
2023/08/21 09:19:44;;;;;;;9.52;2.60;;;22.00;99.90;;;;;;6134381;23;20020;-88
2023/08/21 09:22:18;;;;;;;9.63;2.30;;;22.10;99.90;;;;;;6133717;23;20019;-88
2023/08/21 09:25:08;;;;;;;6.22;1.67;;;22.10;99.90;;;;;;6183537;23;20017;-88
2023/08/21 09:27:35;;;;;;;8.27;1.95;;;22.10;99.90;;;;;;6158371;23;20017;-87
2023/08/21 09:30:14;;;;;;;6.85;1.90;;;22.10;99.90;;;;;;6134010;23;20028;-88
2023/08/21 09:32:56;;;;;;;8.93;1.90;;;22.20;99.90;;;;;;6133883;23;20013;-88
2023/08/21 09:35:25;;;;;;;;;;;22.30;99.90;;;;;;6158793;23;20015;-88
2023/08/21 09:37:52;;;;;;;6.70;1.80;;;22.30;99.90;;;;;;6133369;23;19912;-88
2023/08/21 09:40:19;;;;;;;6.70;1.50;;;22.40;99.90;;;;;;6159145;23;20343;-88
2023/08/21 09:42:45;;;;;;;5.28;1.20;;;22.40;99.90;;;;;;6134064;23;20386;-88
2023/08/21 09:45:11;;;;;;;5.03;1.23;;;22.50;98.00;;;;;;6158285;23;20013;-88
2023/08/21 09:47:39;;;;;;;5.63;1.42;;;22.60;95.30;;;;;;6133098;23;20136;-88
2023/08/21 09:50:06;;;;;;;5.55;1.33;;;22.60;93.30;;;;;;6158149;23;20016;-88
2023/08/21 09:52:35;;;;;;;6.18;1.33;;;22.70;96.00;;;;;;6158936;23;20009;-88
2023/08/21 09:55:03;;;;;;;7.32;1.75;;;22.80;92.90;;;;;;6133375;23;20350;-88
2023/08/21 09:57:29;;;;;;;7.13;1.73;;;22.90;91.90;;;;;;6132793;23;20455;-88
2023/08/21 09:59:56;;;;;;;10.07;1.70;;;22.90;94.80;;;;;;6133285;23;20017;-88
2023/08/21 10:02:23;;;;;;;8.85;1.60;;;23.00;97.80;;;;;;6157531;23;20009;-88
2023/08/21 10:04:49;;;;;;;8.35;1.63;;;23.10;98.50;;;;;;6157712;23;20087;-88
2023/08/21 10:07:20;;;;;;;7.20;1.50;;;23.10;97.10;;;;;;6133570;23;20092;-88
2023/08/21 10:09:46;;;;;;;7.85;1.20;;;23.20;97.20;;;;;;6158284;23;20088;-88
2023/08/21 10:12:16;;;;;;;4.55;1.25;;;23.20;92.30;;;;;;6134307;23;20020;-88
2023/08/21 10:14:42;;;;;;;6.15;1.15;;;23.30;89.10;;;;;;6157912;23;20009;-88
2023/08/21 10:17:08;;;;;;;6.45;1.40;;;23.30;86.10;;;;;;6158263;23;20478;-88
2023/08/21 10:19:35;;;;;;;4.63;1.00;;;23.40;86.70;;;;;;6184096;23;20013;-88
2023/08/21 10:22:03;;;;;;;5.47;1.45;;;23.50;84.70;;;;;;6157578;23;20045;-88
2023/08/21 10:24:37;;;;;;;7.97;1.88;;;23.50;84.40;;;;;;6133427;23;20009;-88
2023/08/21 10:27:03;;;;;;;6.45;1.50;;;23.60;84.30;;;;;;6158755;23;20025;-88
2023/08/21 10:29:35;;;;;;;6.82;1.58;;;23.70;84.10;;;;;;6157981;23;20009;-88
2023/08/21 10:32:02;;;;;;;6.78;1.50;;;23.70;85.20;;;;;;6182480;23;20020;-88
2023/08/21 10:34:38;;;;;;;6.93;1.67;;;23.70;84.00;;;;;;6133016;23;20016;-88
2023/08/21 10:37:12;;;;;;;6.97;1.70;;;23.80;85.70;;;;;;6158173;23;20035;-89
2023/08/21 10:39:53;;;;;;;7.28;1.85;;;23.90;84.30;;;;;;6157691;23;20355;-88
2023/08/21 10:42:36;;;;;;;7.80;1.70;;;24.00;87.20;;;;;;6133202;23;20017;-88
2023/08/21 10:45:10;;;;;;;7.50;1.80;;;24.10;84.70;;;;;;6157540;23;20009;-88
2023/08/21 10:47:36;;;;;;;6.82;1.60;;;24.20;85.10;;;;;;6157842;23;20051;-88
2023/08/21 10:50:04;;;;;;;7.63;1.90;;;24.20;88.70;;;;;;6133582;23;20017;-89
2023/08/21 10:52:34;;;;;;;7.38;1.70;;;24.30;86.00;;;;;;6157789;23;20469;-88
2023/08/21 10:55:01;;;;;;;8.02;1.70;;;24.40;84.50;;;;;;6133429;23;20024;-89
2023/08/21 10:57:30;;;;;;;7.57;1.70;;;24.50;82.60;;;;;;6157807;23;20346;-88
2023/08/21 11:00:11;;;;;;;6.88;1.73;;;24.50;83.10;;;;;;6157615;23;20044;-89
2023/08/21 11:02:39;;;;;;;6.18;1.48;;;24.60;80.50;;;;;;6133649;23;20064;-89
2023/08/21 11:05:08;;;;;;;8.30;1.70;;;24.60;80.10;;;;;;6133363;23;20023;-89
2023/08/21 11:07:39;;;;;;;8.85;2.00;;;24.70;79.60;;;;;;6157970;23;20336;-89
2023/08/21 11:10:10;;;;;;;7.18;1.70;;;24.80;81.40;;;;;;6133234;23;20016;-89
2023/08/21 11:12:36;;;;;;;6.85;1.48;;;24.90;80.40;;;;;;6158182;23;20012;-89
2023/08/21 11:15:03;;;;;;;6.90;1.80;;;24.90;75.10;;;;;;6157473;23;20027;-89
2023/08/21 11:17:29;;;;;;;7.07;1.67;;;24.90;73.50;;;;;;6156997;23;20017;-89
2023/08/21 11:19:55;;;;;;;7.05;1.60;;;25.00;74.00;;;;;;6157340;23;20067;-89
2023/08/21 11:22:27;;;;;;;8.20;1.90;;;25.10;75.30;;;;;;6157772;23;20083;-89
2023/08/21 11:24:53;;;;;;;5.68;1.50;;;25.10;74.10;;;;;;6132540;23;20021;-88
2023/08/21 11:27:19;;;;;;;5.70;1.45;;;25.20;72.80;;;;;;6157857;23;20142;-89
2023/08/21 11:29:51;;;;;;;5.70;1.40;;;25.30;72.60;;;;;;6157890;23;20020;-89
2023/08/21 11:32:19;;;;;;;8.23;1.87;;;25.30;71.20;;;;;;6133117;23;20013;-89
2023/08/21 11:34:55;;;;;;;6.38;1.70;;;25.40;72.20;;;;;;6133111;23;20017;-89
2023/08/21 11:37:22;;;;;;;5.55;1.50;;;25.50;72.40;;;;;;6157705;23;20063;-89
2023/08/21 11:39:55;;;;;;;7.05;1.75;;;25.60;71.80;;;;;;6156849;23;20120;-89
2023/08/21 11:42:32;;;;;;;6.78;1.85;;;25.70;70.30;;;;;;6157033;23;20023;-90
2023/08/21 11:45:04;;;;;;;9.27;1.85;;;25.70;68.80;;;;;;6131441;23;20024;-89
2023/08/21 11:47:32;;;;;;;5.80;1.42;;;25.80;69.20;;;;;;6132765;23;20013;-89
2023/08/21 11:50:02;;;;;;;6.15;1.50;;;25.90;69.80;;;;;;6157226;23;20013;-89
2023/08/21 11:52:37;;;;;;;8.18;1.77;;;26.00;70.60;;;;;;6133097;23;20020;-89
2023/08/21 11:55:08;;;;;;;8.40;1.60;;;26.10;71.40;;;;;;6132124;23;20508;-89
2023/08/21 11:57:36;;;;;;;6.22;1.67;;;26.20;70.50;;;;;;6132406;23;20028;-89
2023/08/21 12:00:05;;;;;;;7.72;1.70;;;26.30;69.00;;;;;;6133506;23;20016;-90
2023/08/21 12:02:31;;;;;;;8.18;1.80;;;26.30;69.30;;;;;;6160259;23;20048;-89
2023/08/21 12:05:08;;;;;;;3.85;1.20;;;26.40;69.40;;;;;;6135392;23;20462;-90
2023/08/21 12:07:33;;;;;;;5.65;1.60;;;26.50;68.20;;;;;;6158907;23;20021;-90
2023/08/21 12:10:02;;;;;;;5.43;1.30;;;26.50;69.00;;;;;;6134800;23;20062;-90
2023/08/21 12:12:28;;;;;;;4.43;1.30;;;26.60;66.60;;;;;;6134743;23;20028;-89
2023/08/21 12:15:06;;;;;;;6.75;1.38;;;26.60;65.60;;;;;;6159053;23;20104;-89
2023/08/21 12:17:35;;;;;;;5.70;1.40;;;26.70;64.60;;;;;;6158948;23;20009;-90
2023/08/21 12:20:12;;;;;;;7.07;1.83;;;26.70;65.20;;;;;;6133188;23;20013;-90
2023/08/21 12:22:44;;;;;;;5.50;1.60;;;26.90;65.80;;;;;;6134302;23;20016;-90
2023/08/21 12:25:31;;;;;;;7.50;1.42;;;27.00;66.80;;;;;;6133876;23;20458;-89
2023/08/21 12:28:05;;;;;;;5.30;1.42;;;27.10;65.50;;;;;;6134647;23;20350;-90
2023/08/21 12:30:42;;;;;;;6.50;1.70;;;27.20;65.80;;;;;;6134921;23;20017;-90
2023/08/21 12:33:14;;;;;;;6.30;1.55;;;27.30;64.60;;;;;;6159114;23;20009;-90
2023/08/21 12:35:48;;;;;;;6.05;1.50;;;27.50;65.40;;;;;;6134453;23;20017;-90
2023/08/21 12:38:28;;;;;;;5.95;1.38;;;27.60;64.50;;;;;;6133739;23;20027;-90
2023/08/21 12:41:02;;;;;;;4.63;1.38;;;27.80;65.60;;;;;;6134471;23;20013;-90
2023/08/21 12:43:34;;;;;;;5.50;1.50;;;27.80;65.60;;;;;;6159231;23;20013;-90
2023/08/21 12:46:08;;;;;;;5.43;1.40;;;27.90;64.70;;;;;;6133395;23;20017;-90
2023/08/21 12:48:37;;;;;;;7.20;1.30;;;28.00;64.50;;;;;;6159515;23;20334;-90